sensor_id;sensor_type;location;lat;lon;timestamp;P1;durP1;ratioP1;P2;durP2;ratioP2
19589;SDS011;12231;42.782;23.388;2023-04-15T00:02:16;4.97;;;3.73;;
19589;SDS011;12231;42.782;23.388;2023-04-15T00:04:46;8.00;;;4.30;;
19589;SDS011;12231;42.782;23.388;2023-04-15T00:07:13;6.03;;;3.60;;
19589;SDS011;12231;42.782;23.388;2023-04-15T00:09:39;4.73;;;2.97;;
19589;SDS011;12231;42.782;23.388;2023-04-15T00:12:05;7.23;;;3.17;;
19589;SDS011;12231;42.782;23.388;2023-04-15T00:14:32;6.03;;;3.27;;
19589;SDS011;12231;42.782;23.388;2023-04-15T00:17:00;7.70;;;4.20;;
19589;SDS011;12231;42.782;23.388;2023-04-15T00:19:25;8.33;;;3.60;;
19589;SDS011;12231;42.782;23.388;2023-04-15T00:21:51;4.67;;;3.10;;
19589;SDS011;12231;42.782;23.388;2023-04-15T00:24:16;6.27;;;3.50;;
19589;SDS011;12231;42.782;23.388;2023-04-15T00:26:41;5.43;;;3.60;;
19589;SDS011;12231;42.782;23.388;2023-04-15T00:29:07;4.70;;;3.20;;
19589;SDS011;12231;42.782;23.388;2023-04-15T00:31:32;3.70;;;2.80;;
19589;SDS011;12231;42.782;23.388;2023-04-15T00:33:58;3.73;;;2.80;;
19589;SDS011;12231;42.782;23.388;2023-04-15T00:36:23;3.97;;;2.83;;
19589;SDS011;12231;42.782;23.388;2023-04-15T00:38:50;7.00;;;2.73;;
19589;SDS011;12231;42.782;23.388;2023-04-15T00:41:15;5.87;;;3.33;;
19589;SDS011;12231;42.782;23.388;2023-04-15T00:43:43;5.53;;;3.30;;
19589;SDS011;12231;42.782;23.388;2023-04-15T00:46:08;7.03;;;3.67;;
19589;SDS011;12231;42.782;23.388;2023-04-15T00:48:36;11.90;;;6.17;;
19589;SDS011;12231;42.782;23.388;2023-04-15T00:51:03;17.93;;;9.13;;
19589;SDS011;12231;42.782;23.388;2023-04-15T00:53:28;10.50;;;5.47;;
19589;SDS011;12231;42.782;23.388;2023-04-15T00:55:54;13.20;;;5.20;;
19589;SDS011;12231;42.782;23.388;2023-04-15T00:58:20;7.77;;;3.97;;
19589;SDS011;12231;42.782;23.388;2023-04-15T01:00:45;6.07;;;3.90;;
19589;SDS011;12231;42.782;23.388;2023-04-15T01:03:11;6.40;;;3.97;;
19589;SDS011;12231;42.782;23.388;2023-04-15T01:05:37;10.23;;;4.90;;
19589;SDS011;12231;42.782;23.388;2023-04-15T01:08:03;7.53;;;4.47;;
19589;SDS011;12231;42.782;23.388;2023-04-15T01:10:30;6.97;;;4.30;;
19589;SDS011;12231;42.782;23.388;2023-04-15T01:12:56;6.87;;;4.07;;
19589;SDS011;12231;42.782;23.388;2023-04-15T01:15:21;6.87;;;3.93;;
19589;SDS011;12231;42.782;23.388;2023-04-15T01:17:48;5.90;;;4.60;;
19589;SDS011;12231;42.782;23.388;2023-04-15T01:20:14;7.03;;;3.97;;
19589;SDS011;12231;42.782;23.388;2023-04-15T01:22:40;7.10;;;4.57;;
19589;SDS011;12231;42.782;23.388;2023-04-15T01:25:09;7.07;;;4.40;;
19589;SDS011;12231;42.782;23.388;2023-04-15T01:27:38;9.20;;;4.23;;
19589;SDS011;12231;42.782;23.388;2023-04-15T01:30:05;7.67;;;4.80;;
19589;SDS011;12231;42.782;23.388;2023-04-15T01:32:31;5.87;;;4.40;;
19589;SDS011;12231;42.782;23.388;2023-04-15T01:34:57;9.40;;;5.10;;
19589;SDS011;12231;42.782;23.388;2023-04-15T01:37:23;8.30;;;5.13;;
19589;SDS011;12231;42.782;23.388;2023-04-15T01:39:48;9.77;;;5.17;;
19589;SDS011;12231;42.782;23.388;2023-04-15T01:42:14;11.73;;;5.30;;
19589;SDS011;12231;42.782;23.388;2023-04-15T01:44:39;7.23;;;4.50;;
19589;SDS011;12231;42.782;23.388;2023-04-15T01:47:05;7.00;;;4.53;;
19589;SDS011;12231;42.782;23.388;2023-04-15T01:49:31;7.70;;;4.87;;
19589;SDS011;12231;42.782;23.388;2023-04-15T01:51:56;8.60;;;5.10;;
19589;SDS011;12231;42.782;23.388;2023-04-15T01:54:22;8.63;;;4.70;;
19589;SDS011;12231;42.782;23.388;2023-04-15T01:56:47;8.47;;;4.87;;
19589;SDS011;12231;42.782;23.388;2023-04-15T01:59:13;9.50;;;5.17;;
19589;SDS011;12231;42.782;23.388;2023-04-15T02:01:38;8.13;;;4.97;;
19589;SDS011;12231;42.782;23.388;2023-04-15T02:04:05;8.27;;;4.70;;
19589;SDS011;12231;42.782;23.388;2023-04-15T02:06:31;7.30;;;3.97;;
19589;SDS011;12231;42.782;23.388;2023-04-15T02:08:56;6.77;;;4.67;;
19589;SDS011;12231;42.782;23.388;2023-04-15T02:11:23;7.17;;;4.57;;
19589;SDS011;12231;42.782;23.388;2023-04-15T02:13:48;7.30;;;4.60;;
19589;SDS011;12231;42.782;23.388;2023-04-15T02:16:17;7.50;;;4.60;;
19589;SDS011;12231;42.782;23.388;2023-04-15T02:18:43;8.40;;;4.33;;
19589;SDS011;12231;42.782;23.388;2023-04-15T02:21:09;7.07;;;6.30;;
19589;SDS011;12231;42.782;23.388;2023-04-15T02:23:35;8.13;;;6.07;;
19589;SDS011;12231;42.782;23.388;2023-04-15T02:26:00;9.10;;;4.90;;
19589;SDS011;12231;42.782;23.388;2023-04-15T02:28:26;6.80;;;4.53;;
19589;SDS011;12231;42.782;23.388;2023-04-15T02:30:51;10.73;;;5.00;;
19589;SDS011;12231;42.782;23.388;2023-04-15T02:33:18;6.53;;;4.63;;
19589;SDS011;12231;42.782;23.388;2023-04-15T02:35:44;5.93;;;4.83;;
19589;SDS011;12231;42.782;23.388;2023-04-15T02:38:10;8.13;;;5.20;;
19589;SDS011;12231;42.782;23.388;2023-04-15T02:40:36;7.77;;;4.20;;
19589;SDS011;12231;42.782;23.388;2023-04-15T02:43:01;5.23;;;4.10;;
19589;SDS011;12231;42.782;23.388;2023-04-15T02:45:27;5.50;;;3.93;;
19589;SDS011;12231;42.782;23.388;2023-04-15T02:47:53;7.17;;;4.17;;
19589;SDS011;12231;42.782;23.388;2023-04-15T02:50:19;4.60;;;4.00;;
19589;SDS011;12231;42.782;23.388;2023-04-15T02:52:45;8.90;;;4.80;;
19589;SDS011;12231;42.782;23.388;2023-04-15T02:55:10;6.73;;;4.77;;
19589;SDS011;12231;42.782;23.388;2023-04-15T02:57:36;5.50;;;4.10;;
19589;SDS011;12231;42.782;23.388;2023-04-15T03:00:03;6.90;;;4.27;;
19589;SDS011;12231;42.782;23.388;2023-04-15T03:02:33;8.93;;;4.33;;
19589;SDS011;12231;42.782;23.388;2023-04-15T03:05:02;5.80;;;4.00;;
19589;SDS011;12231;42.782;23.388;2023-04-15T03:07:29;5.77;;;3.50;;
19589;SDS011;12231;42.782;23.388;2023-04-15T03:09:55;7.03;;;4.63;;
19589;SDS011;12231;42.782;23.388;2023-04-15T03:12:21;10.93;;;5.30;;
19589;SDS011;12231;42.782;23.388;2023-04-15T03:14:46;12.23;;;7.40;;
19589;SDS011;12231;42.782;23.388;2023-04-15T03:17:12;14.50;;;8.97;;
19589;SDS011;12231;42.782;23.388;2023-04-15T03:19:37;15.10;;;8.00;;
19589;SDS011;12231;42.782;23.388;2023-04-15T03:22:03;16.70;;;8.47;;
19589;SDS011;12231;42.782;23.388;2023-04-15T03:24:28;8.60;;;6.27;;
19589;SDS011;12231;42.782;23.388;2023-04-15T03:26:54;10.83;;;6.53;;
19589;SDS011;12231;42.782;23.388;2023-04-15T03:29:21;8.30;;;6.30;;
19589;SDS011;12231;42.782;23.388;2023-04-15T03:31:47;12.03;;;7.20;;
19589;SDS011;12231;42.782;23.388;2023-04-15T03:34:12;11.40;;;6.97;;
19589;SDS011;12231;42.782;23.388;2023-04-15T03:36:38;113.80;;;47.57;;
19589;SDS011;12231;42.782;23.388;2023-04-15T03:39:03;33.17;;;15.23;;
19589;SDS011;12231;42.782;23.388;2023-04-15T03:41:32;10.10;;;6.57;;
19589;SDS011;12231;42.782;23.388;2023-04-15T03:43:58;13.87;;;7.70;;
19589;SDS011;12231;42.782;23.388;2023-04-15T03:46:23;14.70;;;8.23;;
19589;SDS011;12231;42.782;23.388;2023-04-15T03:48:50;16.90;;;8.87;;
19589;SDS011;12231;42.782;23.388;2023-04-15T03:51:16;50.87;;;20.50;;
19589;SDS011;12231;42.782;23.388;2023-04-15T03:53:41;31.93;;;14.93;;
19589;SDS011;12231;42.782;23.388;2023-04-15T03:56:07;17.93;;;9.50;;
19589;SDS011;12231;42.782;23.388;2023-04-15T03:58:32;12.73;;;6.93;;
19589;SDS011;12231;42.782;23.388;2023-04-15T04:00:58;20.07;;;9.50;;
19589;SDS011;12231;42.782;23.388;2023-04-15T04:03:23;18.73;;;10.67;;
19589;SDS011;12231;42.782;23.388;2023-04-15T04:05:49;42.27;;;21.17;;
19589;SDS011;12231;42.782;23.388;2023-04-15T04:08:15;21.50;;;10.50;;
19589;SDS011;12231;42.782;23.388;2023-04-15T04:10:41;20.37;;;10.33;;
19589;SDS011;12231;42.782;23.388;2023-04-15T04:13:06;15.43;;;8.87;;
19589;SDS011;12231;42.782;23.388;2023-04-15T04:15:32;11.37;;;7.10;;
19589;SDS011;12231;42.782;23.388;2023-04-15T04:17:58;13.73;;;7.90;;
19589;SDS011;12231;42.782;23.388;2023-04-15T04:20:23;10.80;;;6.80;;
19589;SDS011;12231;42.782;23.388;2023-04-15T04:22:49;8.60;;;5.17;;
19589;SDS011;12231;42.782;23.388;2023-04-15T04:25:15;6.10;;;4.60;;
19589;SDS011;12231;42.782;23.388;2023-04-15T04:27:40;7.03;;;4.80;;
19589;SDS011;12231;42.782;23.388;2023-04-15T04:30:06;6.13;;;4.20;;
19589;SDS011;12231;42.782;23.388;2023-04-15T04:32:32;6.43;;;4.73;;
19589;SDS011;12231;42.782;23.388;2023-04-15T04:34:57;5.47;;;3.77;;
19589;SDS011;12231;42.782;23.388;2023-04-15T04:37:23;5.40;;;3.43;;
19589;SDS011;12231;42.782;23.388;2023-04-15T04:39:49;4.53;;;3.57;;
19589;SDS011;12231;42.782;23.388;2023-04-15T04:42:14;5.80;;;3.77;;
19589;SDS011;12231;42.782;23.388;2023-04-15T04:44:40;4.40;;;3.40;;
19589;SDS011;12231;42.782;23.388;2023-04-15T04:47:05;4.10;;;3.23;;
19589;SDS011;12231;42.782;23.388;2023-04-15T04:49:31;6.77;;;3.37;;
19589;SDS011;12231;42.782;23.388;2023-04-15T04:51:57;6.67;;;4.50;;
19589;SDS011;12231;42.782;23.388;2023-04-15T04:54:23;6.20;;;5.07;;
19589;SDS011;12231;42.782;23.388;2023-04-15T04:56:48;4.63;;;3.77;;
19589;SDS011;12231;42.782;23.388;2023-04-15T04:59:14;6.88;;;5.97;;
19589;SDS011;12231;42.782;23.388;2023-04-15T05:01:39;12.23;;;8.45;;
19589;SDS011;12231;42.782;23.388;2023-04-15T05:04:05;4.05;;;3.40;;
19589;SDS011;12231;42.782;23.388;2023-04-15T05:06:31;3.83;;;2.70;;
19589;SDS011;12231;42.782;23.388;2023-04-15T05:08:57;14.80;;;8.40;;
19589;SDS011;12231;42.782;23.388;2023-04-15T05:11:22;30.20;;;13.32;;
19589;SDS011;12231;42.782;23.388;2023-04-15T05:13:48;26.17;;;12.85;;
19589;SDS011;12231;42.782;23.388;2023-04-15T05:16:13;20.63;;;9.93;;
19589;SDS011;12231;42.782;23.388;2023-04-15T05:18:38;21.55;;;10.57;;
19589;SDS011;12231;42.782;23.388;2023-04-15T05:21:04;36.30;;;15.95;;
19589;SDS011;12231;42.782;23.388;2023-04-15T05:23:30;48.28;;;19.00;;
19589;SDS011;12231;42.782;23.388;2023-04-15T05:25:55;57.70;;;21.42;;
19589;SDS011;12231;42.782;23.388;2023-04-15T05:28:21;12.68;;;6.95;;
19589;SDS011;12231;42.782;23.388;2023-04-15T05:30:46;3.63;;;3.10;;
19589;SDS011;12231;42.782;23.388;2023-04-15T05:33:12;13.02;;;6.60;;
19589;SDS011;12231;42.782;23.388;2023-04-15T05:35:38;30.45;;;13.50;;
19589;SDS011;12231;42.782;23.388;2023-04-15T05:38:03;25.00;;;9.45;;
19589;SDS011;12231;42.782;23.388;2023-04-15T05:40:29;13.27;;;6.05;;
19589;SDS011;12231;42.782;23.388;2023-04-15T05:42:55;11.23;;;5.00;;
19589;SDS011;12231;42.782;23.388;2023-04-15T05:45:20;9.38;;;4.82;;
19589;SDS011;12231;42.782;23.388;2023-04-15T05:47:46;6.75;;;4.28;;
19589;SDS011;12231;42.782;23.388;2023-04-15T05:50:11;12.65;;;7.10;;
19589;SDS011;12231;42.782;23.388;2023-04-15T05:52:37;6.10;;;3.53;;
19589;SDS011;12231;42.782;23.388;2023-04-15T05:55:02;8.20;;;4.78;;
19589;SDS011;12231;42.782;23.388;2023-04-15T05:57:28;11.60;;;6.90;;
19589;SDS011;12231;42.782;23.388;2023-04-15T05:59:53;7.03;;;4.15;;
19589;SDS011;12231;42.782;23.388;2023-04-15T06:02:21;3.58;;;3.17;;
19589;SDS011;12231;42.782;23.388;2023-04-15T06:04:46;3.42;;;2.67;;
19589;SDS011;12231;42.782;23.388;2023-04-15T06:07:12;3.25;;;2.60;;
19589;SDS011;12231;42.782;23.388;2023-04-15T06:09:38;7.78;;;4.10;;
19589;SDS011;12231;42.782;23.388;2023-04-15T06:12:03;3.95;;;2.78;;
19589;SDS011;12231;42.782;23.388;2023-04-15T06:14:30;3.55;;;3.00;;
19589;SDS011;12231;42.782;23.388;2023-04-15T06:16:55;14.55;;;7.03;;
19589;SDS011;12231;42.782;23.388;2023-04-15T06:19:21;4.10;;;3.38;;
19589;SDS011;12231;42.782;23.388;2023-04-15T06:21:46;3.83;;;3.10;;
19589;SDS011;12231;42.782;23.388;2023-04-15T06:24:12;7.40;;;3.67;;
19589;SDS011;12231;42.782;23.388;2023-04-15T06:26:37;4.57;;;3.25;;
19589;SDS011;12231;42.782;23.388;2023-04-15T06:29:03;3.97;;;3.50;;
19589;SDS011;12231;42.782;23.388;2023-04-15T06:31:28;5.05;;;3.60;;
19589;SDS011;12231;42.782;23.388;2023-04-15T06:33:54;4.97;;;3.53;;
19589;SDS011;12231;42.782;23.388;2023-04-15T06:36:20;4.82;;;3.95;;
19589;SDS011;12231;42.782;23.388;2023-04-15T06:38:45;3.90;;;3.50;;
19589;SDS011;12231;42.782;23.388;2023-04-15T06:41:11;4.43;;;3.03;;
19589;SDS011;12231;42.782;23.388;2023-04-15T06:43:37;5.32;;;3.92;;
19589;SDS011;12231;42.782;23.388;2023-04-15T06:46:02;4.82;;;3.40;;
19589;SDS011;12231;42.782;23.388;2023-04-15T06:48:28;5.32;;;3.45;;
19589;SDS011;12231;42.782;23.388;2023-04-15T06:50:53;5.07;;;3.55;;
19589;SDS011;12231;42.782;23.388;2023-04-15T06:53:18;5.15;;;3.85;;
19589;SDS011;12231;42.782;23.388;2023-04-15T06:55:44;4.13;;;3.40;;
19589;SDS011;12231;42.782;23.388;2023-04-15T06:58:09;5.47;;;3.30;;
19589;SDS011;12231;42.782;23.388;2023-04-15T07:00:35;4.13;;;3.67;;
19589;SDS011;12231;42.782;23.388;2023-04-15T07:03:02;4.93;;;3.42;;
19589;SDS011;12231;42.782;23.388;2023-04-15T07:05:28;6.45;;;3.50;;
19589;SDS011;12231;42.782;23.388;2023-04-15T07:07:55;6.78;;;3.60;;
19589;SDS011;12231;42.782;23.388;2023-04-15T07:10:21;4.40;;;3.03;;
19589;SDS011;12231;42.782;23.388;2023-04-15T07:12:46;3.10;;;2.72;;
19589;SDS011;12231;42.782;23.388;2023-04-15T07:15:12;4.63;;;3.35;;
19589;SDS011;12231;42.782;23.388;2023-04-15T07:17:38;4.40;;;3.70;;
19589;SDS011;12231;42.782;23.388;2023-04-15T07:20:03;6.63;;;4.30;;
19589;SDS011;12231;42.782;23.388;2023-04-15T07:22:29;6.18;;;4.00;;
19589;SDS011;12231;42.782;23.388;2023-04-15T07:24:55;4.75;;;3.67;;
19589;SDS011;12231;42.782;23.388;2023-04-15T07:27:20;4.57;;;3.53;;
19589;SDS011;12231;42.782;23.388;2023-04-15T07:29:46;4.60;;;3.30;;
19589;SDS011;12231;42.782;23.388;2023-04-15T07:32:12;3.67;;;3.15;;
19589;SDS011;12231;42.782;23.388;2023-04-15T07:34:37;5.85;;;3.67;;
19589;SDS011;12231;42.782;23.388;2023-04-15T07:37:03;3.72;;;2.90;;
19589;SDS011;12231;42.782;23.388;2023-04-15T07:39:28;4.50;;;2.78;;
19589;SDS011;12231;42.782;23.388;2023-04-15T07:41:54;6.55;;;2.97;;
19589;SDS011;12231;42.782;23.388;2023-04-15T07:44:20;4.07;;;2.75;;
19589;SDS011;12231;42.782;23.388;2023-04-15T07:46:46;6.32;;;2.90;;
19589;SDS011;12231;42.782;23.388;2023-04-15T07:49:11;4.05;;;2.78;;
19589;SDS011;12231;42.782;23.388;2023-04-15T07:51:37;5.20;;;2.72;;
19589;SDS011;12231;42.782;23.388;2023-04-15T07:54:02;3.63;;;2.65;;
19589;SDS011;12231;42.782;23.388;2023-04-15T07:56:28;4.78;;;2.65;;
19589;SDS011;12231;42.782;23.388;2023-04-15T07:58:54;5.40;;;2.38;;
19589;SDS011;12231;42.782;23.388;2023-04-15T08:01:19;2.80;;;2.25;;
19589;SDS011;12231;42.782;23.388;2023-04-15T08:03:45;5.13;;;3.17;;
19589;SDS011;12231;42.782;23.388;2023-04-15T08:06:11;4.25;;;3.10;;
19589;SDS011;12231;42.782;23.388;2023-04-15T08:08:36;4.70;;;2.75;;
19589;SDS011;12231;42.782;23.388;2023-04-15T08:11:02;2.67;;;2.33;;
19589;SDS011;12231;42.782;23.388;2023-04-15T08:13:27;3.80;;;2.45;;
19589;SDS011;12231;42.782;23.388;2023-04-15T08:18:42;3.42;;;2.10;;
19589;SDS011;12231;42.782;23.388;2023-04-15T08:21:08;2.28;;;2.00;;
19589;SDS011;12231;42.782;23.388;2023-04-15T08:23:34;4.00;;;2.50;;
19589;SDS011;12231;42.782;23.388;2023-04-15T08:26:00;3.95;;;2.38;;
19589;SDS011;12231;42.782;23.388;2023-04-15T08:28:25;4.57;;;2.30;;
19589;SDS011;12231;42.782;23.388;2023-04-15T08:30:55;3.28;;;2.60;;
19589;SDS011;12231;42.782;23.388;2023-04-15T08:33:24;7.10;;;3.00;;
19589;SDS011;12231;42.782;23.388;2023-04-15T08:35:50;3.97;;;3.20;;
19589;SDS011;12231;42.782;23.388;2023-04-15T08:38:15;4.93;;;2.20;;
19589;SDS011;12231;42.782;23.388;2023-04-15T08:40:42;5.47;;;2.10;;
19589;SDS011;12231;42.782;23.388;2023-04-15T08:43:10;3.80;;;2.83;;
19589;SDS011;12231;42.782;23.388;2023-04-15T08:45:39;2.00;;;1.85;;
19589;SDS011;12231;42.782;23.388;2023-04-15T08:48:06;2.05;;;1.70;;
19589;SDS011;12231;42.782;23.388;2023-04-15T08:50:36;2.40;;;1.80;;
19589;SDS011;12231;42.782;23.388;2023-04-15T08:53:02;1.60;;;1.50;;
19589;SDS011;12231;42.782;23.388;2023-04-15T08:55:28;2.70;;;1.48;;
19589;SDS011;12231;42.782;23.388;2023-04-15T08:58:00;2.05;;;1.30;;
19589;SDS011;12231;42.782;23.388;2023-04-15T09:00:27;1.42;;;1.13;;
19589;SDS011;12231;42.782;23.388;2023-04-15T09:02:55;2.10;;;1.33;;
19589;SDS011;12231;42.782;23.388;2023-04-15T09:05:22;4.05;;;1.27;;
19589;SDS011;12231;42.782;23.388;2023-04-15T09:07:49;1.65;;;1.50;;
19589;SDS011;12231;42.782;23.388;2023-04-15T09:10:15;2.30;;;1.60;;
19589;SDS011;12231;42.782;23.388;2023-04-15T09:12:41;3.55;;;1.60;;
19589;SDS011;12231;42.782;23.388;2023-04-15T09:15:09;4.78;;;1.88;;
19589;SDS011;12231;42.782;23.388;2023-04-15T09:17:40;2.28;;;1.45;;
19589;SDS011;12231;42.782;23.388;2023-04-15T09:22:33;2.05;;;1.45;;
19589;SDS011;12231;42.782;23.388;2023-04-15T09:24:59;1.42;;;1.27;;
19589;SDS011;12231;42.782;23.388;2023-04-15T09:27:25;1.48;;;1.38;;
19589;SDS011;12231;42.782;23.388;2023-04-15T09:29:50;2.05;;;1.42;;
19589;SDS011;12231;42.782;23.388;2023-04-15T09:32:18;2.55;;;1.38;;
19589;SDS011;12231;42.782;23.388;2023-04-15T09:34:45;1.77;;;1.08;;
19589;SDS011;12231;42.782;23.388;2023-04-15T09:37:10;2.60;;;1.45;;
19589;SDS011;12231;42.782;23.388;2023-04-15T09:39:44;1.25;;;1.15;;
19589;SDS011;12231;42.782;23.388;2023-04-15T09:42:14;3.25;;;1.38;;
19589;SDS011;12231;42.782;23.388;2023-04-15T09:44:41;1.95;;;1.40;;
19589;SDS011;12231;42.782;23.388;2023-04-15T09:47:07;2.30;;;1.25;;
19589;SDS011;12231;42.782;23.388;2023-04-15T09:49:32;2.50;;;1.17;;
19589;SDS011;12231;42.782;23.388;2023-04-15T09:52:01;2.67;;;1.10;;
19589;SDS011;12231;42.782;23.388;2023-04-15T09:54:36;1.65;;;1.00;;
19589;SDS011;12231;42.782;23.388;2023-04-15T09:57:06;3.08;;;1.40;;
19589;SDS011;12231;42.782;23.388;2023-04-15T09:59:32;1.67;;;1.40;;
19589;SDS011;12231;42.782;23.388;2023-04-15T10:02:04;7.80;;;5.30;;
19589;SDS011;12231;42.782;23.388;2023-04-15T10:04:32;1.60;;;1.25;;
19589;SDS011;12231;42.782;23.388;2023-04-15T10:07:04;2.72;;;1.40;;
19589;SDS011;12231;42.782;23.388;2023-04-15T10:09:30;2.38;;;1.10;;
19589;SDS011;12231;42.782;23.388;2023-04-15T10:11:57;2.13;;;1.40;;
19589;SDS011;12231;42.782;23.388;2023-04-15T10:14:23;1.58;;;1.02;;
19589;SDS011;12231;42.782;23.388;2023-04-15T10:16:52;17.55;;;6.50;;
19589;SDS011;12231;42.782;23.388;2023-04-15T10:19:20;33.20;;;13.77;;
19589;SDS011;12231;42.782;23.388;2023-04-15T10:21:50;5.47;;;2.70;;
19589;SDS011;12231;42.782;23.388;2023-04-15T10:24:16;18.45;;;7.80;;
19589;SDS011;12231;42.782;23.388;2023-04-15T10:26:42;22.38;;;10.35;;
19589;SDS011;12231;42.782;23.388;2023-04-15T10:29:09;4.28;;;2.58;;
19589;SDS011;12231;42.782;23.388;2023-04-15T10:31:34;6.10;;;3.13;;
19589;SDS011;12231;42.782;23.388;2023-04-15T10:34:02;3.58;;;1.20;;
19589;SDS011;12231;42.782;23.388;2023-04-15T10:36:30;2.42;;;1.42;;
19589;SDS011;12231;42.782;23.388;2023-04-15T10:38:57;3.08;;;1.45;;
19589;SDS011;12231;42.782;23.388;2023-04-15T10:41:23;4.38;;;2.75;;
19589;SDS011;12231;42.782;23.388;2023-04-15T10:46:33;2.88;;;1.00;;
19589;SDS011;12231;42.782;23.388;2023-04-15T10:49:45;1.00;;;0.93;;
19589;SDS011;12231;42.782;23.388;2023-04-15T10:51:52;3.88;;;1.23;;
19589;SDS011;12231;42.782;23.388;2023-04-15T10:56:50;2.63;;;1.05;;
19589;SDS011;12231;42.782;23.388;2023-04-15T10:59:16;1.35;;;0.90;;
19589;SDS011;12231;42.782;23.388;2023-04-15T11:01:56;2.25;;;1.13;;
19589;SDS011;12231;42.782;23.388;2023-04-15T11:07:31;1.38;;;1.20;;
19589;SDS011;12231;42.782;23.388;2023-04-15T11:12:53;1.70;;;1.10;;
19589;SDS011;12231;42.782;23.388;2023-04-15T11:18:08;6.15;;;3.00;;
19589;SDS011;12231;42.782;23.388;2023-04-15T11:20:34;2.95;;;1.55;;
19589;SDS011;12231;42.782;23.388;2023-04-15T11:23:00;3.92;;;2.42;;
19589;SDS011;12231;42.782;23.388;2023-04-15T11:25:28;0.95;;;0.90;;
19589;SDS011;12231;42.782;23.388;2023-04-15T11:27:56;1.10;;;1.00;;
19589;SDS011;12231;42.782;23.388;2023-04-15T11:30:24;2.25;;;1.33;;
19589;SDS011;12231;42.782;23.388;2023-04-15T11:32:52;3.13;;;0.90;;
19589;SDS011;12231;42.782;23.388;2023-04-15T11:35:19;2.88;;;1.45;;
19589;SDS011;12231;42.782;23.388;2023-04-15T11:37:46;2.97;;;1.73;;
19589;SDS011;12231;42.782;23.388;2023-04-15T11:40:24;2.17;;;1.60;;
19589;SDS011;12231;42.782;23.388;2023-04-15T11:43:12;1.30;;;1.27;;
19589;SDS011;12231;42.782;23.388;2023-04-15T11:48:27;1.02;;;0.90;;
19589;SDS011;12231;42.782;23.388;2023-04-15T11:50:58;1.80;;;1.20;;
19589;SDS011;12231;42.782;23.388;2023-04-15T11:53:38;2.80;;;1.38;;
19589;SDS011;12231;42.782;23.388;2023-04-15T11:56:05;1.45;;;0.88;;
19589;SDS011;12231;42.782;23.388;2023-04-15T11:58:33;1.75;;;1.60;;
19589;SDS011;12231;42.782;23.388;2023-04-15T12:01:01;1.13;;;1.13;;
19589;SDS011;12231;42.782;23.388;2023-04-15T12:03:34;4.65;;;1.52;;
19589;SDS011;12231;42.782;23.388;2023-04-15T12:08:47;2.20;;;1.05;;
19589;SDS011;12231;42.782;23.388;2023-04-15T12:13:55;1.65;;;0.80;;
19589;SDS011;12231;42.782;23.388;2023-04-15T12:16:24;1.27;;;0.73;;
19589;SDS011;12231;42.782;23.388;2023-04-15T12:18:50;0.88;;;0.88;;
19589;SDS011;12231;42.782;23.388;2023-04-15T12:21:20;3.13;;;1.05;;
19589;SDS011;12231;42.782;23.388;2023-04-15T12:23:50;0.88;;;0.77;;
19589;SDS011;12231;42.782;23.388;2023-04-15T12:26:17;1.00;;;0.80;;
19589;SDS011;12231;42.782;23.388;2023-04-15T12:28:52;2.13;;;1.13;;
19589;SDS011;12231;42.782;23.388;2023-04-15T12:31:19;2.20;;;1.17;;
19589;SDS011;12231;42.782;23.388;2023-04-15T12:33:47;3.53;;;1.13;;
19589;SDS011;12231;42.782;23.388;2023-04-15T12:36:13;3.00;;;1.98;;
19589;SDS011;12231;42.782;23.388;2023-04-15T12:38:39;3.55;;;1.42;;
19589;SDS011;12231;42.782;23.388;2023-04-15T12:41:04;3.40;;;2.00;;
19589;SDS011;12231;42.782;23.388;2023-04-15T12:43:30;5.32;;;2.72;;
19589;SDS011;12231;42.782;23.388;2023-04-15T12:45:55;1.50;;;1.00;;
19589;SDS011;12231;42.782;23.388;2023-04-15T12:48:20;1.17;;;0.93;;
19589;SDS011;12231;42.782;23.388;2023-04-15T12:50:46;2.95;;;1.05;;
19589;SDS011;12231;42.782;23.388;2023-04-15T12:53:11;2.25;;;1.35;;
19589;SDS011;12231;42.782;23.388;2023-04-15T12:55:37;2.45;;;1.23;;
19589;SDS011;12231;42.782;23.388;2023-04-15T12:58:03;2.28;;;1.92;;
19589;SDS011;12231;42.782;23.388;2023-04-15T13:00:28;1.70;;;0.90;;
19589;SDS011;12231;42.782;23.388;2023-04-15T13:02:54;1.40;;;0.80;;
19589;SDS011;12231;42.782;23.388;2023-04-15T13:05:19;1.80;;;1.70;;
19589;SDS011;12231;42.782;23.388;2023-04-15T13:07:45;1.25;;;1.15;;
19589;SDS011;12231;42.782;23.388;2023-04-15T13:10:10;1.45;;;0.95;;
19589;SDS011;12231;42.782;23.388;2023-04-15T13:12:36;1.63;;;0.90;;
19589;SDS011;12231;42.782;23.388;2023-04-15T13:15:02;1.63;;;1.02;;
19589;SDS011;12231;42.782;23.388;2023-04-15T13:17:28;1.48;;;1.00;;
19589;SDS011;12231;42.782;23.388;2023-04-15T13:19:55;1.88;;;1.25;;
19589;SDS011;12231;42.782;23.388;2023-04-15T13:22:21;4.22;;;1.40;;
19589;SDS011;12231;42.782;23.388;2023-04-15T13:24:46;5.00;;;2.15;;
19589;SDS011;12231;42.782;23.388;2023-04-15T13:27:11;4.25;;;1.73;;
19589;SDS011;12231;42.782;23.388;2023-04-15T13:29:37;3.85;;;2.00;;
19589;SDS011;12231;42.782;23.388;2023-04-15T13:32:04;4.57;;;1.60;;
19589;SDS011;12231;42.782;23.388;2023-04-15T13:34:30;1.88;;;1.20;;
19589;SDS011;12231;42.782;23.388;2023-04-15T13:36:55;1.63;;;1.13;;
19589;SDS011;12231;42.782;23.388;2023-04-15T13:39:21;2.65;;;0.95;;
19589;SDS011;12231;42.782;23.388;2023-04-15T13:41:47;3.47;;;1.05;;
19589;SDS011;12231;42.782;23.388;2023-04-15T13:44:12;0.80;;;0.80;;
19589;SDS011;12231;42.782;23.388;2023-04-15T13:46:38;2.42;;;1.80;;
19589;SDS011;12231;42.782;23.388;2023-04-15T13:49:05;1.13;;;0.90;;
19589;SDS011;12231;42.782;23.388;2023-04-15T13:51:31;2.67;;;1.27;;
19589;SDS011;12231;42.782;23.388;2023-04-15T13:53:56;11.55;;;4.68;;
19589;SDS011;12231;42.782;23.388;2023-04-15T13:56:22;7.10;;;3.08;;
19589;SDS011;12231;42.782;23.388;2023-04-15T13:58:48;1.75;;;1.10;;
19589;SDS011;12231;42.782;23.388;2023-04-15T14:01:13;2.05;;;1.23;;
19589;SDS011;12231;42.782;23.388;2023-04-15T14:03:39;2.08;;;1.33;;
19589;SDS011;12231;42.782;23.388;2023-04-15T14:06:04;1.20;;;0.95;;
19589;SDS011;12231;42.782;23.388;2023-04-15T14:08:30;1.77;;;1.10;;
19589;SDS011;12231;42.782;23.388;2023-04-15T14:10:55;3.67;;;0.88;;
19589;SDS011;12231;42.782;23.388;2023-04-15T14:13:21;2.30;;;1.13;;
19589;SDS011;12231;42.782;23.388;2023-04-15T14:15:47;1.20;;;0.98;;
19589;SDS011;12231;42.782;23.388;2023-04-15T14:18:12;5.57;;;1.30;;
19589;SDS011;12231;42.782;23.388;2023-04-15T14:20:38;2.63;;;1.05;;
19589;SDS011;12231;42.782;23.388;2023-04-15T14:23:03;1.33;;;1.10;;
19589;SDS011;12231;42.782;23.388;2023-04-15T14:25:29;1.95;;;1.00;;
19589;SDS011;12231;42.782;23.388;2023-04-15T14:27:54;3.22;;;1.55;;
19589;SDS011;12231;42.782;23.388;2023-04-15T14:30:20;6.13;;;2.15;;
19589;SDS011;12231;42.782;23.388;2023-04-15T14:32:45;2.13;;;1.23;;
19589;SDS011;12231;42.782;23.388;2023-04-15T14:35:10;2.33;;;0.90;;
19589;SDS011;12231;42.782;23.388;2023-04-15T14:37:36;2.25;;;1.08;;
19589;SDS011;12231;42.782;23.388;2023-04-15T14:40:02;0.98;;;0.90;;
19589;SDS011;12231;42.782;23.388;2023-04-15T14:42:27;0.90;;;0.90;;
19589;SDS011;12231;42.782;23.388;2023-04-15T14:44:52;1.98;;;1.00;;
19589;SDS011;12231;42.782;23.388;2023-04-15T14:47:18;1.55;;;1.10;;
19589;SDS011;12231;42.782;23.388;2023-04-15T14:49:43;2.55;;;1.90;;
19589;SDS011;12231;42.782;23.388;2023-04-15T14:52:09;16.80;;;8.07;;
19589;SDS011;12231;42.782;23.388;2023-04-15T14:54:34;2.60;;;2.03;;